sensor_id;sensor_type;location;lat;lon;timestamp;temperature;humidity
1546;DHT22;766;51.502;9.752;2023-06-14T00:00:06;15.80;99.90
1546;DHT22;766;51.502;9.752;2023-06-14T00:02:35;15.80;99.90
1546;DHT22;766;51.502;9.752;2023-06-14T00:05:04;15.70;99.90
1546;DHT22;766;51.502;9.752;2023-06-14T00:07:34;15.70;99.90
1546;DHT22;766;51.502;9.752;2023-06-14T00:10:03;15.70;99.90
1546;DHT22;766;51.502;9.752;2023-06-14T00:12:33;15.70;99.90
1546;DHT22;766;51.502;9.752;2023-06-14T00:15:02;15.70;99.90
1546;DHT22;766;51.502;9.752;2023-06-14T00:17:31;15.80;99.90
1546;DHT22;766;51.502;9.752;2023-06-14T00:20:02;15.80;99.90
1546;DHT22;766;51.502;9.752;2023-06-14T00:22:32;15.90;99.90
1546;DHT22;766;51.502;9.752;2023-06-14T00:25:01;15.80;99.90
1546;DHT22;766;51.502;9.752;2023-06-14T00:27:51;15.90;99.90
1546;DHT22;766;51.502;9.752;2023-06-14T00:30:19;15.60;99.90
1546;DHT22;766;51.502;9.752;2023-06-14T00:32:48;15.50;99.90
1546;DHT22;766;51.502;9.752;2023-06-14T00:35:17;15.50;99.90
1546;DHT22;766;51.502;9.752;2023-06-14T00:37:46;15.50;99.90
1546;DHT22;766;51.502;9.752;2023-06-14T00:40:14;15.40;99.90
1546;DHT22;766;51.502;9.752;2023-06-14T00:42:46;15.30;99.90
1546;DHT22;766;51.502;9.752;2023-06-14T00:45:16;15.30;99.90
1546;DHT22;766;51.502;9.752;2023-06-14T00:47:46;15.50;99.90
1546;DHT22;766;51.502;9.752;2023-06-14T00:50:15;15.30;99.90
1546;DHT22;766;51.502;9.752;2023-06-14T00:52:44;15.20;99.90
1546;DHT22;766;51.502;9.752;2023-06-14T00:55:13;15.20;99.90
1546;DHT22;766;51.502;9.752;2023-06-14T00:57:41;15.00;99.90
1546;DHT22;766;51.502;9.752;2023-06-14T01:00:11;15.00;99.90
1546;DHT22;766;51.502;9.752;2023-06-14T01:02:41;15.00;99.90
1546;DHT22;766;51.502;9.752;2023-06-14T01:05:10;14.90;99.90
1546;DHT22;766;51.502;9.752;2023-06-14T01:07:49;14.80;99.90
1546;DHT22;766;51.502;9.752;2023-06-14T01:10:36;14.80;99.90
1546;DHT22;766;51.502;9.752;2023-06-14T01:13:14;14.80;99.90
1546;DHT22;766;51.502;9.752;2023-06-14T01:15:45;14.80;99.90
1546;DHT22;766;51.502;9.752;2023-06-14T01:18:17;14.70;99.90
1546;DHT22;766;51.502;9.752;2023-06-14T01:20:47;14.70;99.90
1546;DHT22;766;51.502;9.752;2023-06-14T01:23:20;14.90;99.90
1546;DHT22;766;51.502;9.752;2023-06-14T01:25:49;14.80;99.90
1546;DHT22;766;51.502;9.752;2023-06-14T01:28:21;15.00;99.90
1546;DHT22;766;51.502;9.752;2023-06-14T01:30:52;15.10;99.90
1546;DHT22;766;51.502;9.752;2023-06-14T01:33:24;14.90;99.90
1546;DHT22;766;51.502;9.752;2023-06-14T01:35:55;15.00;99.90
1546;DHT22;766;51.502;9.752;2023-06-14T01:38:26;14.80;99.90
1546;DHT22;766;51.502;9.752;2023-06-14T01:40:57;14.70;99.90
1546;DHT22;766;51.502;9.752;2023-06-14T01:43:26;14.80;99.90
1546;DHT22;766;51.502;9.752;2023-06-14T01:45:58;14.70;99.90
1546;DHT22;766;51.502;9.752;2023-06-14T01:48:27;14.80;99.90
1546;DHT22;766;51.502;9.752;2023-06-14T01:50:56;14.70;99.90
1546;DHT22;766;51.502;9.752;2023-06-14T01:53:25;14.50;99.90
1546;DHT22;766;51.502;9.752;2023-06-14T01:55:54;14.40;99.90
1546;DHT22;766;51.502;9.752;2023-06-14T01:58:22;14.10;99.90
1546;DHT22;766;51.502;9.752;2023-06-14T02:00:51;14.00;99.90
1546;DHT22;766;51.502;9.752;2023-06-14T02:03:22;13.80;99.90
1546;DHT22;766;51.502;9.752;2023-06-14T02:05:52;14.00;99.90
1546;DHT22;766;51.502;9.752;2023-06-14T02:08:21;13.80;99.90
1546;DHT22;766;51.502;9.752;2023-06-14T02:10:52;14.00;99.90
1546;DHT22;766;51.502;9.752;2023-06-14T02:13:20;14.00;99.90
1546;DHT22;766;51.502;9.752;2023-06-14T02:15:48;13.90;99.90
1546;DHT22;766;51.502;9.752;2023-06-14T02:18:22;13.80;99.90
1546;DHT22;766;51.502;9.752;2023-06-14T02:20:50;13.70;99.90
1546;DHT22;766;51.502;9.752;2023-06-14T02:23:19;13.60;99.90
1546;DHT22;766;51.502;9.752;2023-06-14T02:25:47;13.90;99.90
1546;DHT22;766;51.502;9.752;2023-06-14T02:28:18;13.80;99.90
1546;DHT22;766;51.502;9.752;2023-06-14T02:30:47;13.90;99.90
1546;DHT22;766;51.502;9.752;2023-06-14T02:33:15;13.90;99.90
1546;DHT22;766;51.502;9.752;2023-06-14T02:35:44;13.90;99.90
1546;DHT22;766;51.502;9.752;2023-06-14T02:38:13;14.10;99.90
1546;DHT22;766;51.502;9.752;2023-06-14T02:40:41;14.20;99.90
1546;DHT22;766;51.502;9.752;2023-06-14T02:43:10;14.20;99.90
1546;DHT22;766;51.502;9.752;2023-06-14T02:45:39;14.10;99.90
1546;DHT22;766;51.502;9.752;2023-06-14T02:48:08;14.20;99.90
1546;DHT22;766;51.502;9.752;2023-06-14T02:50:37;14.10;99.90
1546;DHT22;766;51.502;9.752;2023-06-14T02:53:08;14.10;99.90
1546;DHT22;766;51.502;9.752;2023-06-14T02:55:37;14.20;99.90
1546;DHT22;766;51.502;9.752;2023-06-14T02:58:07;14.20;99.90
1546;DHT22;766;51.502;9.752;2023-06-14T03:00:36;14.10;99.90
1546;DHT22;766;51.502;9.752;2023-06-14T03:03:07;14.10;99.90
1546;DHT22;766;51.502;9.752;2023-06-14T03:05:43;13.90;99.90
1546;DHT22;766;51.502;9.752;2023-06-14T03:08:14;13.80;99.90
1546;DHT22;766;51.502;9.752;2023-06-14T03:10:44;13.60;99.90
1546;DHT22;766;51.502;9.752;2023-06-14T03:13:12;13.70;99.90
1546;DHT22;766;51.502;9.752;2023-06-14T03:15:41;13.20;99.90
1546;DHT22;766;51.502;9.752;2023-06-14T03:18:11;12.90;99.90
1546;DHT22;766;51.502;9.752;2023-06-14T03:20:40;12.90;99.90
1546;DHT22;766;51.502;9.752;2023-06-14T03:23:09;13.00;99.90
1546;DHT22;766;51.502;9.752;2023-06-14T03:25:38;13.10;99.90
1546;DHT22;766;51.502;9.752;2023-06-14T03:28:09;13.00;99.90
1546;DHT22;766;51.502;9.752;2023-06-14T03:31:01;13.20;99.90
1546;DHT22;766;51.502;9.752;2023-06-14T03:33:36;13.40;99.90
1546;DHT22;766;51.502;9.752;2023-06-14T03:36:04;13.50;99.90
1546;DHT22;766;51.502;9.752;2023-06-14T03:38:33;13.60;99.90
1546;DHT22;766;51.502;9.752;2023-06-14T03:41:02;13.40;99.90
1546;DHT22;766;51.502;9.752;2023-06-14T03:43:30;13.50;99.90
1546;DHT22;766;51.502;9.752;2023-06-14T03:45:58;13.60;99.90
1546;DHT22;766;51.502;9.752;2023-06-14T03:48:27;13.40;99.90
1546;DHT22;766;51.502;9.752;2023-06-14T03:50:57;13.40;99.90
1546;DHT22;766;51.502;9.752;2023-06-14T03:53:28;13.40;99.90
1546;DHT22;766;51.502;9.752;2023-06-14T03:55:56;13.40;99.90
1546;DHT22;766;51.502;9.752;2023-06-14T03:58:27;13.40;99.90
1546;DHT22;766;51.502;9.752;2023-06-14T04:00:56;13.40;99.90
1546;DHT22;766;51.502;9.752;2023-06-14T04:03:24;13.40;99.90
1546;DHT22;766;51.502;9.752;2023-06-14T04:05:58;13.40;99.90
1546;DHT22;766;51.502;9.752;2023-06-14T04:08:27;13.40;99.90
1546;DHT22;766;51.502;9.752;2023-06-14T04:10:55;13.30;99.90
1546;DHT22;766;51.502;9.752;2023-06-14T04:13:24;13.40;99.90
1546;DHT22;766;51.502;9.752;2023-06-14T04:15:52;13.50;99.90
1546;DHT22;766;51.502;9.752;2023-06-14T04:18:21;13.30;99.90
1546;DHT22;766;51.502;9.752;2023-06-14T04:20:51;13.40;99.90
1546;DHT22;766;51.502;9.752;2023-06-14T04:23:21;13.30;99.90
1546;DHT22;766;51.502;9.752;2023-06-14T04:25:50;13.40;99.90
1546;DHT22;766;51.502;9.752;2023-06-14T04:28:19;13.30;99.90
1546;DHT22;766;51.502;9.752;2023-06-14T04:30:52;13.20;99.90
1546;DHT22;766;51.502;9.752;2023-06-14T04:33:21;13.20;99.90
1546;DHT22;766;51.502;9.752;2023-06-14T04:35:52;13.30;99.90
1546;DHT22;766;51.502;9.752;2023-06-14T04:38:25;13.10;99.90
1546;DHT22;766;51.502;9.752;2023-06-14T04:40:55;13.10;99.90
1546;DHT22;766;51.502;9.752;2023-06-14T04:43:24;13.30;99.90
1546;DHT22;766;51.502;9.752;2023-06-14T04:45:53;13.30;99.90
1546;DHT22;766;51.502;9.752;2023-06-14T04:48:23;13.40;99.90
1546;DHT22;766;51.502;9.752;2023-06-14T04:50:52;13.50;99.90
1546;DHT22;766;51.502;9.752;2023-06-14T04:53:21;13.50;99.90
1546;DHT22;766;51.502;9.752;2023-06-14T04:55:51;13.80;99.90
1546;DHT22;766;51.502;9.752;2023-06-14T04:58:19;13.50;99.90
1546;DHT22;766;51.502;9.752;2023-06-14T05:00:48;13.90;99.90
1546;DHT22;766;51.502;9.752;2023-06-14T05:03:16;14.30;99.90
1546;DHT22;766;51.502;9.752;2023-06-14T05:05:48;14.40;99.90
1546;DHT22;766;51.502;9.752;2023-06-14T05:08:17;14.40;99.90
1546;DHT22;766;51.502;9.752;2023-06-14T05:10:47;14.40;99.90
1546;DHT22;766;51.502;9.752;2023-06-14T05:13:17;14.40;99.90
1546;DHT22;766;51.502;9.752;2023-06-14T05:15:46;14.60;99.90
1546;DHT22;766;51.502;9.752;2023-06-14T05:18:16;14.30;99.90
1546;DHT22;766;51.502;9.752;2023-06-14T05:20:44;14.20;99.90
1546;DHT22;766;51.502;9.752;2023-06-14T05:23:13;14.30;99.90
1546;DHT22;766;51.502;9.752;2023-06-14T05:25:42;14.50;99.90
1546;DHT22;766;51.502;9.752;2023-06-14T05:28:12;14.70;99.90
1546;DHT22;766;51.502;9.752;2023-06-14T05:30:43;15.20;99.90
1546;DHT22;766;51.502;9.752;2023-06-14T05:33:12;15.00;99.90
1546;DHT22;766;51.502;9.752;2023-06-14T05:35:40;14.70;99.90
1546;DHT22;766;51.502;9.752;2023-06-14T05:38:09;14.90;99.90
1546;DHT22;766;51.502;9.752;2023-06-14T05:40:38;14.70;99.90
1546;DHT22;766;51.502;9.752;2023-06-14T05:43:06;15.10;99.90
1546;DHT22;766;51.502;9.752;2023-06-14T05:45:34;15.60;99.90
1546;DHT22;766;51.502;9.752;2023-06-14T05:48:05;16.00;99.90
1546;DHT22;766;51.502;9.752;2023-06-14T05:50:33;16.50;99.90
1546;DHT22;766;51.502;9.752;2023-06-14T05:53:02;17.00;99.90
1546;DHT22;766;51.502;9.752;2023-06-14T05:55:30;16.80;99.90
1546;DHT22;766;51.502;9.752;2023-06-14T05:57:59;16.70;99.90
1546;DHT22;766;51.502;9.752;2023-06-14T06:00:34;16.50;99.90
1546;DHT22;766;51.502;9.752;2023-06-14T06:03:04;16.40;99.90
1546;DHT22;766;51.502;9.752;2023-06-14T06:05:35;16.50;99.90
1546;DHT22;766;51.502;9.752;2023-06-14T06:08:03;16.30;99.90
1546;DHT22;766;51.502;9.752;2023-06-14T06:10:32;16.20;99.90
1546;DHT22;766;51.502;9.752;2023-06-14T06:13:00;16.10;99.90
1546;DHT22;766;51.502;9.752;2023-06-14T06:15:29;15.90;99.90
1546;DHT22;766;51.502;9.752;2023-06-14T06:17:57;15.80;99.90
1546;DHT22;766;51.502;9.752;2023-06-14T06:20:27;15.60;99.90
1546;DHT22;766;51.502;9.752;2023-06-14T06:22:57;15.90;99.90
1546;DHT22;766;51.502;9.752;2023-06-14T06:25:26;16.10;99.90
1546;DHT22;766;51.502;9.752;2023-06-14T06:27:55;16.10;99.90
1546;DHT22;766;51.502;9.752;2023-06-14T06:30:24;16.30;99.90
1546;DHT22;766;51.502;9.752;2023-06-14T06:32:53;16.30;99.90
1546;DHT22;766;51.502;9.752;2023-06-14T06:35:23;16.10;99.90
1546;DHT22;766;51.502;9.752;2023-06-14T06:37:53;16.20;99.90
1546;DHT22;766;51.502;9.752;2023-06-14T06:40:22;16.10;99.90
1546;DHT22;766;51.502;9.752;2023-06-14T06:42:50;16.30;99.90
1546;DHT22;766;51.502;9.752;2023-06-14T06:45:20;16.40;99.90
1546;DHT22;766;51.502;9.752;2023-06-14T06:47:51;16.30;99.90
1546;DHT22;766;51.502;9.752;2023-06-14T06:50:20;16.50;99.90
1546;DHT22;766;51.502;9.752;2023-06-14T06:52:50;16.50;99.90
1546;DHT22;766;51.502;9.752;2023-06-14T06:55:20;16.70;99.90
1546;DHT22;766;51.502;9.752;2023-06-14T06:57:48;16.90;99.90
1546;DHT22;766;51.502;9.752;2023-06-14T07:00:20;17.10;99.90
1546;DHT22;766;51.502;9.752;2023-06-14T07:02:48;17.20;99.90
1546;DHT22;766;51.502;9.752;2023-06-14T07:05:17;17.30;99.90
1546;DHT22;766;51.502;9.752;2023-06-14T07:07:46;17.50;99.90
1546;DHT22;766;51.502;9.752;2023-06-14T07:10:14;18.10;99.90
1546;DHT22;766;51.502;9.752;2023-06-14T07:12:45;18.30;99.90
1546;DHT22;766;51.502;9.752;2023-06-14T07:15:13;18.70;99.90
1546;DHT22;766;51.502;9.752;2023-06-14T07:17:42;19.30;99.90
1546;DHT22;766;51.502;9.752;2023-06-14T07:20:11;19.40;99.90
1546;DHT22;766;51.502;9.752;2023-06-14T07:22:41;19.10;99.90
1546;DHT22;766;51.502;9.752;2023-06-14T07:25:11;19.60;99.90
1546;DHT22;766;51.502;9.752;2023-06-14T07:27:42;19.40;99.90
1546;DHT22;766;51.502;9.752;2023-06-14T07:30:12;19.10;99.90
1546;DHT22;766;51.502;9.752;2023-06-14T07:32:47;19.10;99.90
1546;DHT22;766;51.502;9.752;2023-06-14T07:35:18;19.30;99.90
1546;DHT22;766;51.502;9.752;2023-06-14T07:37:46;20.50;99.90
1546;DHT22;766;51.502;9.752;2023-06-14T07:40:15;20.50;99.90
1546;DHT22;766;51.502;9.752;2023-06-14T07:42:43;20.70;99.90
1546;DHT22;766;51.502;9.752;2023-06-14T07:45:14;20.30;99.90
1546;DHT22;766;51.502;9.752;2023-06-14T07:47:42;20.00;99.90
1546;DHT22;766;51.502;9.752;2023-06-14T07:50:11;20.10;99.90
1546;DHT22;766;51.502;9.752;2023-06-14T07:52:39;19.70;99.90
1546;DHT22;766;51.502;9.752;2023-06-14T07:55:08;19.80;99.90
1546;DHT22;766;51.502;9.752;2023-06-14T07:58:04;19.50;99.90
1546;DHT22;766;51.502;9.752;2023-06-14T08:00:35;19.10;99.90
1546;DHT22;766;51.502;9.752;2023-06-14T08:03:03;19.10;99.90
1546;DHT22;766;51.502;9.752;2023-06-14T08:05:33;18.60;99.90
1546;DHT22;766;51.502;9.752;2023-06-14T08:08:02;18.20;99.90
1546;DHT22;766;51.502;9.752;2023-06-14T08:10:30;18.00;99.90
1546;DHT22;766;51.502;9.752;2023-06-14T08:12:59;18.60;99.90
1546;DHT22;766;51.502;9.752;2023-06-14T08:15:28;18.50;99.90
1546;DHT22;766;51.502;9.752;2023-06-14T08:17:58;18.40;99.90
1546;DHT22;766;51.502;9.752;2023-06-14T08:20:28;18.00;99.90
1546;DHT22;766;51.502;9.752;2023-06-14T08:22:58;18.20;99.90
1546;DHT22;766;51.502;9.752;2023-06-14T08:25:27;19.70;99.90
1546;DHT22;766;51.502;9.752;2023-06-14T08:27:55;20.00;99.90
1546;DHT22;766;51.502;9.752;2023-06-14T08:30:23;21.00;99.90
1546;DHT22;766;51.502;9.752;2023-06-14T08:32:52;21.60;99.90
1546;DHT22;766;51.502;9.752;2023-06-14T08:35:37;20.80;99.90
1546;DHT22;766;51.502;9.752;2023-06-14T08:38:06;21.40;99.90
1546;DHT22;766;51.502;9.752;2023-06-14T08:40:37;21.40;99.90
1546;DHT22;766;51.502;9.752;2023-06-14T08:43:06;20.60;99.90
1546;DHT22;766;51.502;9.752;2023-06-14T08:45:35;20.30;99.90
1546;DHT22;766;51.502;9.752;2023-06-14T08:48:04;19.70;99.90
1546;DHT22;766;51.502;9.752;2023-06-14T08:50:34;19.30;99.90
1546;DHT22;766;51.502;9.752;2023-06-14T08:53:06;19.50;99.90
1546;DHT22;766;51.502;9.752;2023-06-14T08:55:37;19.60;99.90
1546;DHT22;766;51.502;9.752;2023-06-14T08:58:12;19.10;99.90
1546;DHT22;766;51.502;9.752;2023-06-14T09:00:42;19.40;99.90
1546;DHT22;766;51.502;9.752;2023-06-14T09:03:12;20.50;99.90
1546;DHT22;766;51.502;9.752;2023-06-14T09:05:42;21.60;99.90
1546;DHT22;766;51.502;9.752;2023-06-14T09:08:12;20.90;99.90
1546;DHT22;766;51.502;9.752;2023-06-14T09:10:40;19.70;99.90
1546;DHT22;766;51.502;9.752;2023-06-14T09:13:09;19.50;99.90
1546;DHT22;766;51.502;9.752;2023-06-14T09:15:37;19.00;99.90
1546;DHT22;766;51.502;9.752;2023-06-14T09:18:06;18.90;99.90
1546;DHT22;766;51.502;9.752;2023-06-14T09:20:35;19.60;99.90
1546;DHT22;766;51.502;9.752;2023-06-14T09:23:04;20.30;99.90
1546;DHT22;766;51.502;9.752;2023-06-14T09:25:42;20.70;99.90
1546;DHT22;766;51.502;9.752;2023-06-14T09:28:11;20.60;99.90
1546;DHT22;766;51.502;9.752;2023-06-14T09:30:40;19.90;99.90
1546;DHT22;766;51.502;9.752;2023-06-14T09:33:09;20.90;99.90
1546;DHT22;766;51.502;9.752;2023-06-14T09:35:37;21.30;99.90
1546;DHT22;766;51.502;9.752;2023-06-14T09:38:06;21.40;99.90
1546;DHT22;766;51.502;9.752;2023-06-14T09:40:35;21.60;99.90
1546;DHT22;766;51.502;9.752;2023-06-14T09:43:10;21.40;99.90
1546;DHT22;766;51.502;9.752;2023-06-14T09:45:39;21.90;99.90
1546;DHT22;766;51.502;9.752;2023-06-14T09:48:08;21.80;99.90
1546;DHT22;766;51.502;9.752;2023-06-14T09:50:37;21.70;99.90
1546;DHT22;766;51.502;9.752;2023-06-14T09:53:06;22.60;99.90
1546;DHT22;766;51.502;9.752;2023-06-14T09:55:36;23.00;99.90
1546;DHT22;766;51.502;9.752;2023-06-14T09:58:07;23.50;99.90
1546;DHT22;766;51.502;9.752;2023-06-14T10:00:39;23.20;99.90
1546;DHT22;766;51.502;9.752;2023-06-14T10:03:12;23.10;99.90
1546;DHT22;766;51.502;9.752;2023-06-14T10:05:43;23.80;99.90
1546;DHT22;766;51.502;9.752;2023-06-14T10:08:16;24.70;99.90
1546;DHT22;766;51.502;9.752;2023-06-14T10:10:50;24.30;99.90
1546;DHT22;766;51.502;9.752;2023-06-14T10:13:19;23.60;99.90
1546;DHT22;766;51.502;9.752;2023-06-14T10:15:55;23.80;99.90
1546;DHT22;766;51.502;9.752;2023-06-14T10:18:31;24.40;99.90
1546;DHT22;766;51.502;9.752;2023-06-14T10:21:06;24.80;98.80
1546;DHT22;766;51.502;9.752;2023-06-14T10:23:40;24.00;98.70
1546;DHT22;766;51.502;9.752;2023-06-14T10:26:18;22.90;98.50
1546;DHT22;766;51.502;9.752;2023-06-14T10:28:59;22.20;99.50
1546;DHT22;766;51.502;9.752;2023-06-14T10:31:44;22.30;99.90
1546;DHT22;766;51.502;9.752;2023-06-14T10:34:21;23.30;99.90
1546;DHT22;766;51.502;9.752;2023-06-14T10:37:04;23.80;99.90
1546;DHT22;766;51.502;9.752;2023-06-14T10:39:41;23.70;98.90
1546;DHT22;766;51.502;9.752;2023-06-14T10:42:12;24.40;99.90
1546;DHT22;766;51.502;9.752;2023-06-14T10:44:42;24.20;97.70
1546;DHT22;766;51.502;9.752;2023-06-14T10:47:24;24.50;99.30
1546;DHT22;766;51.502;9.752;2023-06-14T10:49:53;24.00;97.10
1546;DHT22;766;51.502;9.752;2023-06-14T10:52:25;23.50;96.80
1546;DHT22;766;51.502;9.752;2023-06-14T10:55:03;22.90;97.50
1546;DHT22;766;51.502;9.752;2023-06-14T10:57:33;21.80;98.80
1546;DHT22;766;51.502;9.752;2023-06-14T11:00:06;22.30;98.30
1546;DHT22;766;51.502;9.752;2023-06-14T11:05:51;22.50;98.50
1546;DHT22;766;51.502;9.752;2023-06-14T11:11:42;22.10;98.10
1546;DHT22;766;51.502;9.752;2023-06-14T11:14:11;21.80;98.50
1546;DHT22;766;51.502;9.752;2023-06-14T11:16:39;22.00;98.30
1546;DHT22;766;51.502;9.752;2023-06-14T11:19:10;21.20;98.50
1546;DHT22;766;51.502;9.752;2023-06-14T11:21:40;21.30;98.80
1546;DHT22;766;51.502;9.752;2023-06-14T11:24:10;21.50;99.00
1546;DHT22;766;51.502;9.752;2023-06-14T11:26:40;21.60;99.40
1546;DHT22;766;51.502;9.752;2023-06-14T11:29:08;21.70;99.00
1546;DHT22;766;51.502;9.752;2023-06-14T11:31:43;22.00;98.70
1546;DHT22;766;51.502;9.752;2023-06-14T11:34:14;22.00;98.70
1546;DHT22;766;51.502;9.752;2023-06-14T11:36:42;22.50;98.70
1546;DHT22;766;51.502;9.752;2023-06-14T11:39:13;22.70;98.50
1546;DHT22;766;51.502;9.752;2023-06-14T11:41:43;22.40;99.10
1546;DHT22;766;51.502;9.752;2023-06-14T11:44:12;22.80;99.40
1546;DHT22;766;51.502;9.752;2023-06-14T11:46:40;23.30;99.90
1546;DHT22;766;51.502;9.752;2023-06-14T11:49:09;23.50;98.60
1546;DHT22;766;51.502;9.752;2023-06-14T11:51:39;23.50;98.00
1546;DHT22;766;51.502;9.752;2023-06-14T11:54:07;22.80;97.70
1546;DHT22;766;51.502;9.752;2023-06-14T11:56:37;22.60;98.50
1546;DHT22;766;51.502;9.752;2023-06-14T11:59:06;21.90;98.60
1546;DHT22;766;51.502;9.752;2023-06-14T12:01:38;21.70;99.40
1546;DHT22;766;51.502;9.752;2023-06-14T12:04:06;21.60;99.60
1546;DHT22;766;51.502;9.752;2023-06-14T12:06:35;21.50;99.50
1546;DHT22;766;51.502;9.752;2023-06-14T12:09:08;21.40;99.90
1546;DHT22;766;51.502;9.752;2023-06-14T12:11:41;21.40;99.90
1546;DHT22;766;51.502;9.752;2023-06-14T12:14:12;21.70;99.50
1546;DHT22;766;51.502;9.752;2023-06-14T12:16:41;21.80;99.50
1546;DHT22;766;51.502;9.752;2023-06-14T12:19:14;21.90;99.00
1546;DHT22;766;51.502;9.752;2023-06-14T12:21:43;22.00;98.70
1546;DHT22;766;51.502;9.752;2023-06-14T12:24:16;22.00;98.80
1546;DHT22;766;51.502;9.752;2023-06-14T12:26:46;22.40;99.80
1546;DHT22;766;51.502;9.752;2023-06-14T12:29:14;22.60;99.90
1546;DHT22;766;51.502;9.752;2023-06-14T12:31:43;22.30;98.70
1546;DHT22;766;51.502;9.752;2023-06-14T12:34:11;22.30;98.80
1546;DHT22;766;51.502;9.752;2023-06-14T12:36:40;22.00;98.80
1546;DHT22;766;51.502;9.752;2023-06-14T12:39:12;21.70;98.80
1546;DHT22;766;51.502;9.752;2023-06-14T12:41:42;21.80;99.00
1546;DHT22;766;51.502;9.752;2023-06-14T12:44:11;21.70;99.70
1546;DHT22;766;51.502;9.752;2023-06-14T12:46:40;22.10;99.50
1546;DHT22;766;51.502;9.752;2023-06-14T12:49:09;22.40;99.30
1546;DHT22;766;51.502;9.752;2023-06-14T12:51:39;22.80;99.80
1546;DHT22;766;51.502;9.752;2023-06-14T12:54:07;22.80;98.40
1546;DHT22;766;51.502;9.752;2023-06-14T12:56:36;22.80;98.10
1546;DHT22;766;51.502;9.752;2023-06-14T12:59:06;22.80;98.90
1546;DHT22;766;51.502;9.752;2023-06-14T13:01:34;22.80;98.60
1546;DHT22;766;51.502;9.752;2023-06-14T13:04:03;22.60;98.40
1546;DHT22;766;51.502;9.752;2023-06-14T13:06:32;22.00;99.00
1546;DHT22;766;51.502;9.752;2023-06-14T13:09:00;21.90;99.00
1546;DHT22;766;51.502;9.752;2023-06-14T13:11:30;21.80;99.70
1546;DHT22;766;51.502;9.752;2023-06-14T13:13:59;22.30;99.40
1546;DHT22;766;51.502;9.752;2023-06-14T13:16:45;22.50;99.00
1546;DHT22;766;51.502;9.752;2023-06-14T13:19:13;22.30;99.30
1546;DHT22;766;51.502;9.752;2023-06-14T13:21:42;22.50;98.50
1546;DHT22;766;51.502;9.752;2023-06-14T13:24:10;22.20;99.00
1546;DHT22;766;51.502;9.752;2023-06-14T13:26:39;22.20;99.40
1546;DHT22;766;51.502;9.752;2023-06-14T13:29:07;22.20;99.50
1546;DHT22;766;51.502;9.752;2023-06-14T13:31:35;22.20;99.40
1546;DHT22;766;51.502;9.752;2023-06-14T13:34:06;22.00;99.50
1546;DHT22;766;51.502;9.752;2023-06-14T13:36:34;21.80;99.90
1546;DHT22;766;51.502;9.752;2023-06-14T13:39:03;21.80;99.90
1546;DHT22;766;51.502;9.752;2023-06-14T13:41:32;21.60;99.90
1546;DHT22;766;51.502;9.752;2023-06-14T13:44:02;21.70;99.90
1546;DHT22;766;51.502;9.752;2023-06-14T13:46:32;21.80;99.90
1546;DHT22;766;51.502;9.752;2023-06-14T13:49:00;22.10;99.90
1546;DHT22;766;51.502;9.752;2023-06-14T13:51:31;22.10;99.90
1546;DHT22;766;51.502;9.752;2023-06-14T13:54:00;21.80;99.90
1546;DHT22;766;51.502;9.752;2023-06-14T13:56:28;21.70;99.90
1546;DHT22;766;51.502;9.752;2023-06-14T13:58:57;21.50;99.90
1546;DHT22;766;51.502;9.752;2023-06-14T14:01:26;21.70;99.90
1546;DHT22;766;51.502;9.752;2023-06-14T14:03:56;21.80;99.90
1546;DHT22;766;51.502;9.752;2023-06-14T14:06:26;21.90;99.90
1546;DHT22;766;51.502;9.752;2023-06-14T14:08:56;22.10;99.90
1546;DHT22;766;51.502;9.752;2023-06-14T14:11:24;22.20;99.90
1546;DHT22;766;51.502;9.752;2023-06-14T14:13:53;22.20;99.90
1546;DHT22;766;51.502;9.752;2023-06-14T14:16:21;21.90;99.90
1546;DHT22;766;51.502;9.752;2023-06-14T14:18:50;21.80;99.90
1546;DHT22;766;51.502;9.752;2023-06-14T14:21:19;21.70;99.90
1546;DHT22;766;51.502;9.752;2023-06-14T14:23:47;21.70;99.90
1546;DHT22;766;51.502;9.752;2023-06-14T14:26:18;21.70;99.90
1546;DHT22;766;51.502;9.752;2023-06-14T14:28:46;21.70;99.90
1546;DHT22;766;51.502;9.752;2023-06-14T14:31:15;21.70;99.90
1546;DHT22;766;51.502;9.752;2023-06-14T14:33:44;21.70;99.90
1546;DHT22;766;51.502;9.752;2023-06-14T14:36:12;21.80;99.90
1546;DHT22;766;51.502;9.752;2023-06-14T14:41:27;21.70;99.90
1546;DHT22;766;51.502;9.752;2023-06-14T14:43:56;21.70;99.90
1546;DHT22;766;51.502;9.752;2023-06-14T14:46:25;21.80;99.90
1546;DHT22;766;51.502;9.752;2023-06-14T14:49:03;21.60;99.90
1546;DHT22;766;51.502;9.752;2023-06-14T14:51:43;21.40;99.90
1546;DHT22;766;51.502;9.752;2023-06-14T14:54:11;21.30;99.90
1546;DHT22;766;51.502;9.752;2023-06-14T14:56:42;21.30;99.90
1546;DHT22;766;51.502;9.752;2023-06-14T14:59:25;21.20;99.90
1546;DHT22;766;51.502;9.752;2023-06-14T15:02:26;21.20;99.90
1546;DHT22;766;51.502;9.752;2023-06-14T15:04:55;21.40;99.90
1546;DHT22;766;51.502;9.752;2023-06-14T15:07:27;21.70;99.90
1546;DHT22;766;51.502;9.752;2023-06-14T15:09:55;22.00;99.90
1546;DHT22;766;51.502;9.752;2023-06-14T15:12:26;22.00;99.90
1546;DHT22;766;51.502;9.752;2023-06-14T15:14:57;21.80;99.90
1546;DHT22;766;51.502;9.752;2023-06-14T15:17:26;21.60;99.90
1546;DHT22;766;51.502;9.752;2023-06-14T15:19:55;21.60;99.90
1546;DHT22;766;51.502;9.752;2023-06-14T15:22:23;21.40;99.90
1546;DHT22;766;51.502;9.752;2023-06-14T15:24:52;21.30;99.90
1546;DHT22;766;51.502;9.752;2023-06-14T15:27:20;21.10;99.90
1546;DHT22;766;51.502;9.752;2023-06-14T15:29:50;20.90;99.90
1546;DHT22;766;51.502;9.752;2023-06-14T15:32:18;20.90;99.90
1546;DHT22;766;51.502;9.752;2023-06-14T15:34:47;20.80;99.90
1546;DHT22;766;51.502;9.752;2023-06-14T15:37:16;20.80;99.90
1546;DHT22;766;51.502;9.752;2023-06-14T15:39:44;20.70;99.90
1546;DHT22;766;51.502;9.752;2023-06-14T15:42:13;20.70;99.90
1546;DHT22;766;51.502;9.752;2023-06-14T15:44:41;20.60;99.90
1546;DHT22;766;51.502;9.752;2023-06-14T15:47:11;20.80;99.90
1546;DHT22;766;51.502;9.752;2023-06-14T15:49:39;20.90;99.90
1546;DHT22;766;51.502;9.752;2023-06-14T15:52:08;20.80;99.90
1546;DHT22;766;51.502;9.752;2023-06-14T15:54:37;20.90;99.90
1546;DHT22;766;51.502;9.752;2023-06-14T15:57:05;20.80;99.90
1546;DHT22;766;51.502;9.752;2023-06-14T15:59:34;21.00;99.90
1546;DHT22;766;51.502;9.752;2023-06-14T16:02:02;20.80;99.90
1546;DHT22;766;51.502;9.752;2023-06-14T16:04:32;20.80;99.90
1546;DHT22;766;51.502;9.752;2023-06-14T16:07:01;20.80;99.90
1546;DHT22;766;51.502;9.752;2023-06-14T16:09:29;20.70;99.90
1546;DHT22;766;51.502;9.752;2023-06-14T16:11:58;20.70;99.90
1546;DHT22;766;51.502;9.752;2023-06-14T16:14:29;20.60;99.90
1546;DHT22;766;51.502;9.752;2023-06-14T16:16:58;20.60;99.90
1546;DHT22;766;51.502;9.752;2023-06-14T16:19:26;20.70;99.90
1546;DHT22;766;51.502;9.752;2023-06-14T16:21:56;20.80;99.90
1546;DHT22;766;51.502;9.752;2023-06-14T16:24:25;20.60;99.90
1546;DHT22;766;51.502;9.752;2023-06-14T16:26:54;20.70;99.90
1546;DHT22;766;51.502;9.752;2023-06-14T16:29:22;20.80;99.90
1546;DHT22;766;51.502;9.752;2023-06-14T16:31:50;20.90;99.90
1546;DHT22;766;51.502;9.752;2023-06-14T16:34:19;20.90;99.90
1546;DHT22;766;51.502;9.752;2023-06-14T16:36:47;21.00;99.90
1546;DHT22;766;51.502;9.752;2023-06-14T16:39:18;21.00;99.90
1546;DHT22;766;51.502;9.752;2023-06-14T16:41:46;20.70;99.90
1546;DHT22;766;51.502;9.752;2023-06-14T16:44:15;20.70;99.90